sensor_id;sensor_type;location;lat;lon;timestamp;P1;durP1;ratioP1;P2;durP2;ratioP2
11568;SDS011;5840;46.894;15.542;2024-03-08T00:01:02;12.37;;;11.17;;
11568;SDS011;5840;46.894;15.542;2024-03-08T00:03:28;11.83;;;10.70;;
11568;SDS011;5840;46.894;15.542;2024-03-08T00:05:56;12.10;;;10.90;;
11568;SDS011;5840;46.894;15.542;2024-03-08T00:08:22;11.87;;;10.80;;
11568;SDS011;5840;46.894;15.542;2024-03-08T00:10:48;12.50;;;11.30;;
11568;SDS011;5840;46.894;15.542;2024-03-08T00:13:14;12.60;;;11.40;;
11568;SDS011;5840;46.894;15.542;2024-03-08T00:15:41;12.90;;;11.70;;
11568;SDS011;5840;46.894;15.542;2024-03-08T00:18:08;13.57;;;12.27;;
11568;SDS011;5840;46.894;15.542;2024-03-08T00:28:04;13.20;;;11.90;;
11568;SDS011;5840;46.894;15.542;2024-03-08T00:30:31;12.20;;;10.90;;
11568;SDS011;5840;46.894;15.542;2024-03-08T00:32:57;13.27;;;11.97;;
11568;SDS011;5840;46.894;15.542;2024-03-08T00:35:24;13.07;;;11.80;;
11568;SDS011;5840;46.894;15.542;2024-03-08T00:37:51;13.90;;;11.43;;
11568;SDS011;5840;46.894;15.542;2024-03-08T00:40:17;12.43;;;11.23;;
11568;SDS011;5840;46.894;15.542;2024-03-08T00:42:43;12.03;;;10.93;;
11568;SDS011;5840;46.894;15.542;2024-03-08T00:45:10;13.63;;;12.37;;
11568;SDS011;5840;46.894;15.542;2024-03-08T00:52:40;13.20;;;11.90;;
11568;SDS011;5840;46.894;15.542;2024-03-08T00:55:07;13.50;;;12.20;;
11568;SDS011;5840;46.894;15.542;2024-03-08T00:57:35;12.80;;;11.50;;
11568;SDS011;5840;46.894;15.542;2024-03-08T01:00:02;14.73;;;13.23;;
11568;SDS011;5840;46.894;15.542;2024-03-08T01:02:29;12.90;;;11.50;;
11568;SDS011;5840;46.894;15.542;2024-03-08T01:04:55;13.73;;;12.43;;
11568;SDS011;5840;46.894;15.542;2024-03-08T01:07:21;14.33;;;12.90;;
11568;SDS011;5840;46.894;15.542;2024-03-08T01:09:49;14.77;;;13.37;;
11568;SDS011;5840;46.894;15.542;2024-03-08T01:19:43;12.37;;;11.23;;
11568;SDS011;5840;46.894;15.542;2024-03-08T01:22:09;12.77;;;11.63;;
11568;SDS011;5840;46.894;15.542;2024-03-08T01:24:36;13.00;;;11.70;;
11568;SDS011;5840;46.894;15.542;2024-03-08T01:27:02;14.20;;;12.80;;
11568;SDS011;5840;46.894;15.542;2024-03-08T01:29:28;13.60;;;12.30;;
11568;SDS011;5840;46.894;15.542;2024-03-08T01:31:55;13.73;;;12.53;;
11568;SDS011;5840;46.894;15.542;2024-03-08T01:34:21;13.97;;;12.67;;
11568;SDS011;5840;46.894;15.542;2024-03-08T01:36:49;13.83;;;12.57;;
11568;SDS011;5840;46.894;15.542;2024-03-08T01:44:13;14.03;;;12.73;;
11568;SDS011;5840;46.894;15.542;2024-03-08T01:46:42;14.17;;;12.80;;
11568;SDS011;5840;46.894;15.542;2024-03-08T01:49:10;12.67;;;11.57;;
11568;SDS011;5840;46.894;15.542;2024-03-08T01:51:36;12.33;;;11.20;;
11568;SDS011;5840;46.894;15.542;2024-03-08T01:54:05;15.03;;;13.63;;
11568;SDS011;5840;46.894;15.542;2024-03-08T01:56:32;16.17;;;14.67;;
11568;SDS011;5840;46.894;15.542;2024-03-08T01:58:58;15.40;;;14.00;;
11568;SDS011;5840;46.894;15.542;2024-03-08T02:01:26;15.73;;;14.20;;
11568;SDS011;5840;46.894;15.542;2024-03-08T02:08:57;17.10;;;15.30;;
11568;SDS011;5840;46.894;15.542;2024-03-08T02:11:24;16.80;;;15.10;;
11568;SDS011;5840;46.894;15.542;2024-03-08T02:13:50;16.43;;;14.93;;
11568;SDS011;5840;46.894;15.542;2024-03-08T02:16:20;16.37;;;14.77;;
11568;SDS011;5840;46.894;15.542;2024-03-08T02:18:46;16.10;;;14.60;;
11568;SDS011;5840;46.894;15.542;2024-03-08T02:21:13;15.77;;;14.33;;
11568;SDS011;5840;46.894;15.542;2024-03-08T02:23:43;16.60;;;15.10;;
11568;SDS011;5840;46.894;15.542;2024-03-08T02:26:09;16.83;;;15.23;;
11568;SDS011;5840;46.894;15.542;2024-03-08T02:33:39;16.17;;;14.67;;
11568;SDS011;5840;46.894;15.542;2024-03-08T02:36:06;17.60;;;15.87;;
11568;SDS011;5840;46.894;15.542;2024-03-08T02:38:32;15.90;;;14.50;;
11568;SDS011;5840;46.894;15.542;2024-03-08T02:40:58;16.63;;;15.03;;
11568;SDS011;5840;46.894;15.542;2024-03-08T02:43:25;16.43;;;14.93;;
11568;SDS011;5840;46.894;15.542;2024-03-08T02:45:51;16.43;;;14.77;;
11568;SDS011;5840;46.894;15.542;2024-03-08T02:48:18;16.03;;;14.63;;
11568;SDS011;5840;46.894;15.542;2024-03-08T02:50:45;17.10;;;15.30;;
11568;SDS011;5840;46.894;15.542;2024-03-08T03:00:39;14.87;;;13.47;;
11568;SDS011;5840;46.894;15.542;2024-03-08T03:03:06;15.47;;;14.07;;
11568;SDS011;5840;46.894;15.542;2024-03-08T03:05:32;14.87;;;13.37;;
11568;SDS011;5840;46.894;15.542;2024-03-08T03:07:59;14.27;;;12.87;;
11568;SDS011;5840;46.894;15.542;2024-03-08T03:10:25;14.83;;;13.43;;
11568;SDS011;5840;46.894;15.542;2024-03-08T03:12:51;14.37;;;12.97;;
11568;SDS011;5840;46.894;15.542;2024-03-08T03:15:18;14.53;;;13.10;;
11568;SDS011;5840;46.894;15.542;2024-03-08T03:17:46;14.43;;;13.00;;
11568;SDS011;5840;46.894;15.542;2024-03-08T03:25:15;14.23;;;12.83;;
11568;SDS011;5840;46.894;15.542;2024-03-08T03:27:48;14.20;;;12.80;;
11568;SDS011;5840;46.894;15.542;2024-03-08T03:30:15;14.63;;;13.17;;
11568;SDS011;5840;46.894;15.542;2024-03-08T03:32:47;14.43;;;13.10;;
11568;SDS011;5840;46.894;15.542;2024-03-08T03:35:14;14.17;;;12.90;;
11568;SDS011;5840;46.894;15.542;2024-03-08T03:37:42;14.00;;;12.70;;
11568;SDS011;5840;46.894;15.542;2024-03-08T03:40:10;13.77;;;12.57;;
11568;SDS011;5840;46.894;15.542;2024-03-08T03:45:56;13.13;;;11.93;;
11568;SDS011;5840;46.894;15.542;2024-03-08T03:48:22;14.10;;;12.70;;
11568;SDS011;5840;46.894;15.542;2024-03-08T03:50:48;13.77;;;12.47;;
11568;SDS011;5840;46.894;15.542;2024-03-08T03:53:15;14.03;;;12.73;;
11568;SDS011;5840;46.894;15.542;2024-03-08T03:55:41;13.90;;;12.60;;
11568;SDS011;5840;46.894;15.542;2024-03-08T03:58:07;12.90;;;11.73;;
11568;SDS011;5840;46.894;15.542;2024-03-08T04:00:34;13.47;;;12.27;;
11568;SDS011;5840;46.894;15.542;2024-03-08T04:03:02;12.83;;;11.63;;
11568;SDS011;5840;46.894;15.542;2024-03-08T04:12:52;22.17;;;12.77;;
11568;SDS011;5840;46.894;15.542;2024-03-08T04:15:18;22.90;;;13.10;;
11568;SDS011;5840;46.894;15.542;2024-03-08T04:17:45;14.10;;;12.77;;
11568;SDS011;5840;46.894;15.542;2024-03-08T04:20:11;14.70;;;13.03;;
11568;SDS011;5840;46.894;15.542;2024-03-08T04:22:39;15.57;;;12.53;;
11568;SDS011;5840;46.894;15.542;2024-03-08T04:25:06;16.10;;;13.10;;
11568;SDS011;5840;46.894;15.542;2024-03-08T04:27:33;18.70;;;13.30;;
11568;SDS011;5840;46.894;15.542;2024-03-08T04:30:00;15.47;;;13.97;;
11568;SDS011;5840;46.894;15.542;2024-03-08T04:39:55;20.07;;;11.93;;
11568;SDS011;5840;46.894;15.542;2024-03-08T04:42:21;25.37;;;13.77;;
11568;SDS011;5840;46.894;15.542;2024-03-08T04:44:48;16.73;;;13.43;;
11568;SDS011;5840;46.894;15.542;2024-03-08T04:47:14;13.50;;;12.23;;
11568;SDS011;5840;46.894;15.542;2024-03-08T04:49:43;36.17;;;14.17;;
11568;SDS011;5840;46.894;15.542;2024-03-08T04:52:09;36.07;;;13.50;;
11568;SDS011;5840;46.894;15.542;2024-03-08T04:54:35;13.00;;;11.77;;
11568;SDS011;5840;46.894;15.542;2024-03-08T04:57:02;15.17;;;13.17;;
11568;SDS011;5840;46.894;15.542;2024-03-08T05:04:33;37.47;;;14.47;;
11568;SDS011;5840;46.894;15.542;2024-03-08T05:06:59;13.30;;;12.10;;
11568;SDS011;5840;46.894;15.542;2024-03-08T05:09:26;32.20;;;13.87;;
11568;SDS011;5840;46.894;15.542;2024-03-08T05:11:54;15.47;;;12.33;;
11568;SDS011;5840;46.894;15.542;2024-03-08T05:14:20;14.73;;;13.23;;
11568;SDS011;5840;46.894;15.542;2024-03-08T05:16:46;13.50;;;12.27;;
11568;SDS011;5840;46.894;15.542;2024-03-08T05:19:13;14.70;;;13.27;;
11568;SDS011;5840;46.894;15.542;2024-03-08T05:21:42;14.20;;;12.83;;
11568;SDS011;5840;46.894;15.542;2024-03-08T05:31:38;15.40;;;14.00;;
11568;SDS011;5840;46.894;15.542;2024-03-08T05:34:12;17.70;;;14.00;;
11568;SDS011;5840;46.894;15.542;2024-03-08T05:36:39;31.97;;;15.23;;
11568;SDS011;5840;46.894;15.542;2024-03-08T05:39:05;24.73;;;14.47;;
11568;SDS011;5840;46.894;15.542;2024-03-08T05:41:32;47.47;;;15.20;;
11568;SDS011;5840;46.894;15.542;2024-03-08T05:43:58;20.90;;;13.67;;
11568;SDS011;5840;46.894;15.542;2024-03-08T05:46:24;26.13;;;13.27;;
11568;SDS011;5840;46.894;15.542;2024-03-08T05:48:51;13.47;;;12.20;;
11568;SDS011;5840;46.894;15.542;2024-03-08T05:56:23;21.83;;;13.23;;
11568;SDS011;5840;46.894;15.542;2024-03-08T05:58:49;27.13;;;13.93;;
11568;SDS011;5840;46.894;15.542;2024-03-08T06:01:15;13.97;;;12.53;;
11568;SDS011;5840;46.894;15.542;2024-03-08T06:03:42;22.40;;;13.63;;
11568;SDS011;5840;46.894;15.542;2024-03-08T06:06:10;26.57;;;14.07;;
11568;SDS011;5840;46.894;15.542;2024-03-08T06:08:37;17.07;;;13.77;;
11568;SDS011;5840;46.894;15.542;2024-03-08T06:11:03;40.13;;;13.43;;
11568;SDS011;5840;46.894;15.542;2024-03-08T06:13:31;19.13;;;13.00;;
11568;SDS011;5840;46.894;15.542;2024-03-08T06:23:27;19.87;;;13.27;;
11568;SDS011;5840;46.894;15.542;2024-03-08T06:25:53;42.37;;;14.60;;
11568;SDS011;5840;46.894;15.542;2024-03-08T06:28:20;100.63;;;19.43;;
11568;SDS011;5840;46.894;15.542;2024-03-08T06:30:46;240.23;;;27.67;;
11568;SDS011;5840;46.894;15.542;2024-03-08T06:33:12;40.87;;;13.37;;
11568;SDS011;5840;46.894;15.542;2024-03-08T06:35:38;22.17;;;12.57;;
11568;SDS011;5840;46.894;15.542;2024-03-08T06:38:04;164.83;;;20.13;;
11568;SDS011;5840;46.894;15.542;2024-03-08T06:40:32;36.13;;;13.83;;
11568;SDS011;5840;46.894;15.542;2024-03-08T06:48:01;16.90;;;15.00;;
11568;SDS011;5840;46.894;15.542;2024-03-08T06:50:28;32.20;;;13.97;;
11568;SDS011;5840;46.894;15.542;2024-03-08T06:52:55;60.70;;;17.17;;
11568;SDS011;5840;46.894;15.542;2024-03-08T06:55:21;17.90;;;14.73;;
11568;SDS011;5840;46.894;15.542;2024-03-08T06:57:48;32.97;;;15.17;;
11568;SDS011;5840;46.894;15.542;2024-03-08T07:00:14;21.47;;;14.67;;
11568;SDS011;5840;46.894;15.542;2024-03-08T07:02:43;17.70;;;14.20;;
11568;SDS011;5840;46.894;15.542;2024-03-08T07:05:12;16.77;;;15.07;;
11568;SDS011;5840;46.894;15.542;2024-03-08T07:07:51;18.73;;;14.70;;
11568;SDS011;5840;46.894;15.542;2024-03-08T07:10:18;30.53;;;15.47;;
11568;SDS011;5840;46.894;15.542;2024-03-08T07:12:44;38.77;;;16.47;;
11568;SDS011;5840;46.894;15.542;2024-03-08T07:15:11;54.77;;;20.60;;
11568;SDS011;5840;46.894;15.542;2024-03-08T07:17:38;45.27;;;18.53;;
11568;SDS011;5840;46.894;15.542;2024-03-08T07:20:05;16.47;;;14.70;;
11568;SDS011;5840;46.894;15.542;2024-03-08T07:22:37;67.27;;;18.40;;
11568;SDS011;5840;46.894;15.542;2024-03-08T07:25:05;62.97;;;20.33;;
11568;SDS011;5840;46.894;15.542;2024-03-08T07:32:47;111.93;;;22.00;;
11568;SDS011;5840;46.894;15.542;2024-03-08T07:35:14;62.37;;;20.17;;
11568;SDS011;5840;46.894;15.542;2024-03-08T07:37:43;96.37;;;21.43;;
11568;SDS011;5840;46.894;15.542;2024-03-08T07:40:10;52.70;;;17.17;;
11568;SDS011;5840;46.894;15.542;2024-03-08T07:42:38;101.23;;;19.73;;
11568;SDS011;5840;46.894;15.542;2024-03-08T07:45:05;164.13;;;26.10;;
11568;SDS011;5840;46.894;15.542;2024-03-08T07:47:33;16.13;;;14.63;;
11568;SDS011;5840;46.894;15.542;2024-03-08T07:50:02;18.60;;;15.37;;
11568;SDS011;5840;46.894;15.542;2024-03-08T07:57:33;18.87;;;16.97;;
11568;SDS011;5840;46.894;15.542;2024-03-08T07:59:59;26.57;;;16.37;;
11568;SDS011;5840;46.894;15.542;2024-03-08T08:02:25;19.53;;;15.73;;
11568;SDS011;5840;46.894;15.542;2024-03-08T08:04:52;50.07;;;18.27;;
11568;SDS011;5840;46.894;15.542;2024-03-08T08:07:19;18.83;;;16.30;;
11568;SDS011;5840;46.894;15.542;2024-03-08T08:09:45;15.23;;;13.73;;
11568;SDS011;5840;46.894;15.542;2024-03-08T08:12:11;15.90;;;14.47;;
11568;SDS011;5840;46.894;15.542;2024-03-08T08:14:38;16.47;;;14.83;;
11568;SDS011;5840;46.894;15.542;2024-03-08T08:24:34;18.17;;;16.43;;
11568;SDS011;5840;46.894;15.542;2024-03-08T08:27:02;19.53;;;17.63;;
11568;SDS011;5840;46.894;15.542;2024-03-08T08:29:28;19.93;;;17.83;;
11568;SDS011;5840;46.894;15.542;2024-03-08T08:31:55;20.27;;;18.27;;
11568;SDS011;5840;46.894;15.542;2024-03-08T08:34:24;20.30;;;18.30;;
11568;SDS011;5840;46.894;15.542;2024-03-08T08:36:51;19.53;;;17.63;;
11568;SDS011;5840;46.894;15.542;2024-03-08T08:39:18;19.93;;;17.93;;
11568;SDS011;5840;46.894;15.542;2024-03-08T08:41:45;18.33;;;16.63;;
11568;SDS011;5840;46.894;15.542;2024-03-08T08:49:15;17.93;;;16.23;;
11568;SDS011;5840;46.894;15.542;2024-03-08T08:51:48;19.37;;;17.50;;
11568;SDS011;5840;46.894;15.542;2024-03-08T08:54:15;18.57;;;16.87;;
11568;SDS011;5840;46.894;15.542;2024-03-08T08:56:42;19.03;;;17.23;;
11568;SDS011;5840;46.894;15.542;2024-03-08T08:59:09;24.37;;;18.30;;
11568;SDS011;5840;46.894;15.542;2024-03-08T09:01:38;18.43;;;16.83;;
11568;SDS011;5840;46.894;15.542;2024-03-08T09:04:05;19.03;;;17.23;;
11568;SDS011;5840;46.894;15.542;2024-03-08T09:06:33;18.17;;;16.57;;
11568;SDS011;5840;46.894;15.542;2024-03-08T09:14:32;22.33;;;17.77;;
11568;SDS011;5840;46.894;15.542;2024-03-08T09:16:58;18.67;;;16.87;;
11568;SDS011;5840;46.894;15.542;2024-03-08T09:19:24;19.67;;;17.67;;
11568;SDS011;5840;46.894;15.542;2024-03-08T09:21:51;17.70;;;16.10;;
11568;SDS011;5840;46.894;15.542;2024-03-08T09:24:17;18.20;;;16.43;;
11568;SDS011;5840;46.894;15.542;2024-03-08T09:26:43;19.17;;;17.27;;
11568;SDS011;5840;46.894;15.542;2024-03-08T09:29:09;18.70;;;16.80;;
11568;SDS011;5840;46.894;15.542;2024-03-08T09:31:37;19.80;;;17.80;;
11568;SDS011;5840;46.894;15.542;2024-03-08T09:39:06;18.53;;;16.83;;
11568;SDS011;5840;46.894;15.542;2024-03-08T09:41:32;17.87;;;16.17;;
11568;SDS011;5840;46.894;15.542;2024-03-08T09:43:59;17.50;;;15.90;;
11568;SDS011;5840;46.894;15.542;2024-03-08T09:46:25;18.67;;;16.93;;
11568;SDS011;5840;46.894;15.542;2024-03-08T09:48:52;19.10;;;17.30;;
11568;SDS011;5840;46.894;15.542;2024-03-08T09:51:19;19.57;;;17.67;;
11568;SDS011;5840;46.894;15.542;2024-03-08T09:53:48;19.57;;;17.67;;
11568;SDS011;5840;46.894;15.542;2024-03-08T09:56:16;19.00;;;17.10;;
11568;SDS011;5840;46.894;15.542;2024-03-08T10:03:47;19.23;;;17.37;;
11568;SDS011;5840;46.894;15.542;2024-03-08T10:06:14;17.53;;;15.83;;
11568;SDS011;5840;46.894;15.542;2024-03-08T10:08:40;19.40;;;17.63;;
11568;SDS011;5840;46.894;15.542;2024-03-08T10:11:06;18.97;;;17.27;;
11568;SDS011;5840;46.894;15.542;2024-03-08T10:13:33;17.60;;;15.90;;
11568;SDS011;5840;46.894;15.542;2024-03-08T10:16:00;17.83;;;16.13;;
11568;SDS011;5840;46.894;15.542;2024-03-08T10:18:26;18.43;;;16.73;;
11568;SDS011;5840;46.894;15.542;2024-03-08T10:21:02;18.20;;;16.50;;
11568;SDS011;5840;46.894;15.542;2024-03-08T10:28:33;18.70;;;17.00;;
11568;SDS011;5840;46.894;15.542;2024-03-08T10:30:59;19.67;;;17.67;;
11568;SDS011;5840;46.894;15.542;2024-03-08T10:33:26;19.37;;;17.27;;
11568;SDS011;5840;46.894;15.542;2024-03-08T10:35:52;18.73;;;16.93;;
11568;SDS011;5840;46.894;15.542;2024-03-08T10:38:20;18.20;;;16.50;;
11568;SDS011;5840;46.894;15.542;2024-03-08T10:40:47;19.30;;;17.20;;
11568;SDS011;5840;46.894;15.542;2024-03-08T10:43:18;17.83;;;16.03;;
11568;SDS011;5840;46.894;15.542;2024-03-08T10:45:51;19.67;;;16.63;;
11568;SDS011;5840;46.894;15.542;2024-03-08T10:53:31;18.30;;;16.60;;
11568;SDS011;5840;46.894;15.542;2024-03-08T10:56:02;19.30;;;17.47;;
11568;SDS011;5840;46.894;15.542;2024-03-08T10:58:28;19.10;;;17.30;;
11568;SDS011;5840;46.894;15.542;2024-03-08T11:00:57;17.93;;;16.23;;
11568;SDS011;5840;46.894;15.542;2024-03-08T11:06:16;23.57;;;21.47;;
11568;SDS011;5840;46.894;15.542;2024-03-08T11:08:44;16.87;;;15.37;;
11568;SDS011;5840;46.894;15.542;2024-03-08T11:11:24;19.03;;;17.23;;
11568;SDS011;5840;46.894;15.542;2024-03-08T11:19:25;16.03;;;14.53;;
11568;SDS011;5840;46.894;15.542;2024-03-08T11:22:00;12.60;;;11.50;;
11568;SDS011;5840;46.894;15.542;2024-03-08T11:24:27;14.70;;;13.40;;
11568;SDS011;5840;46.894;15.542;2024-03-08T11:27:03;16.87;;;15.37;;
11568;SDS011;5840;46.894;15.542;2024-03-08T11:29:33;15.13;;;13.73;;
11568;SDS011;5840;46.894;15.542;2024-03-08T11:32:03;15.07;;;13.73;;
11568;SDS011;5840;46.894;15.542;2024-03-08T11:34:32;10.50;;;9.60;;
11568;SDS011;5840;46.894;15.542;2024-03-08T11:40:43;11.60;;;10.60;;
11568;SDS011;5840;46.894;15.542;2024-03-08T11:43:15;11.47;;;10.57;;
11568;SDS011;5840;46.894;15.542;2024-03-08T11:45:41;12.20;;;11.20;;
11568;SDS011;5840;46.894;15.542;2024-03-08T11:48:08;12.10;;;11.00;;
11568;SDS011;5840;46.894;15.542;2024-03-08T11:50:34;14.47;;;13.17;;
11568;SDS011;5840;46.894;15.542;2024-03-08T11:53:01;13.00;;;11.90;;
11568;SDS011;5840;46.894;15.542;2024-03-08T11:55:28;12.93;;;11.83;;
11568;SDS011;5840;46.894;15.542;2024-03-08T11:58:00;13.30;;;12.20;;
11568;SDS011;5840;46.894;15.542;2024-03-08T12:05:39;13.00;;;11.87;;
11568;SDS011;5840;46.894;15.542;2024-03-08T12:08:07;13.17;;;11.87;;
11568;SDS011;5840;46.894;15.542;2024-03-08T12:10:37;15.17;;;13.77;;
11568;SDS011;5840;46.894;15.542;2024-03-08T12:13:04;14.87;;;13.57;;
11568;SDS011;5840;46.894;15.542;2024-03-08T12:15:37;14.83;;;13.60;;
11568;SDS011;5840;46.894;15.542;2024-03-08T12:18:06;13.90;;;12.60;;
11568;SDS011;5840;46.894;15.542;2024-03-08T12:20:32;13.73;;;12.53;;
11568;SDS011;5840;46.894;15.542;2024-03-08T12:25:37;14.80;;;13.50;;
11568;SDS011;5840;46.894;15.542;2024-03-08T12:28:07;14.33;;;13.03;;
11568;SDS011;5840;46.894;15.542;2024-03-08T12:30:35;13.30;;;12.20;;
11568;SDS011;5840;46.894;15.542;2024-03-08T12:33:11;12.53;;;11.43;;
11568;SDS011;5840;46.894;15.542;2024-03-08T12:35:38;12.93;;;11.83;;
11568;SDS011;5840;46.894;15.542;2024-03-08T12:38:04;13.73;;;12.63;;
11568;SDS011;5840;46.894;15.542;2024-03-08T12:40:33;12.97;;;11.60;;
11568;SDS011;5840;46.894;15.542;2024-03-08T12:43:01;12.47;;;11.37;;
11568;SDS011;5840;46.894;15.542;2024-03-08T12:52:52;13.90;;;11.97;;
11568;SDS011;5840;46.894;15.542;2024-03-08T12:55:18;16.20;;;12.50;;
11568;SDS011;5840;46.894;15.542;2024-03-08T12:57:44;14.40;;;12.90;;
11568;SDS011;5840;46.894;15.542;2024-03-08T13:00:12;14.33;;;12.93;;
11568;SDS011;5840;46.894;15.542;2024-03-08T13:02:44;14.27;;;12.97;;
11568;SDS011;5840;46.894;15.542;2024-03-08T13:05:10;14.07;;;12.80;;
11568;SDS011;5840;46.894;15.542;2024-03-08T13:07:39;12.53;;;11.43;;
11568;SDS011;5840;46.894;15.542;2024-03-08T13:10:08;13.83;;;12.63;;
11568;SDS011;5840;46.894;15.542;2024-03-08T13:20:08;15.63;;;14.20;;
11568;SDS011;5840;46.894;15.542;2024-03-08T13:22:41;15.27;;;13.67;;
11568;SDS011;5840;46.894;15.542;2024-03-08T13:25:08;15.70;;;14.27;;
11568;SDS011;5840;46.894;15.542;2024-03-08T13:27:38;15.83;;;14.33;;
11568;SDS011;5840;46.894;15.542;2024-03-08T13:30:06;16.70;;;14.80;;
11568;SDS011;5840;46.894;15.542;2024-03-08T13:32:37;14.97;;;13.57;;
11568;SDS011;5840;46.894;15.542;2024-03-08T13:35:04;15.97;;;14.40;;
11568;SDS011;5840;46.894;15.542;2024-03-08T13:37:38;15.33;;;13.93;;
11568;SDS011;5840;46.894;15.542;2024-03-08T13:45:22;15.03;;;13.63;;
11568;SDS011;5840;46.894;15.542;2024-03-08T13:47:49;16.27;;;14.77;;
11568;SDS011;5840;46.894;15.542;2024-03-08T13:50:16;16.03;;;14.53;;
11568;SDS011;5840;46.894;15.542;2024-03-08T13:52:46;16.40;;;14.90;;
11568;SDS011;5840;46.894;15.542;2024-03-08T13:55:14;17.10;;;15.50;;
11568;SDS011;5840;46.894;15.542;2024-03-08T13:57:41;16.30;;;14.80;;
11568;SDS011;5840;46.894;15.542;2024-03-08T14:00:07;16.73;;;15.23;;
11568;SDS011;5840;46.894;15.542;2024-03-08T14:02:35;17.27;;;15.67;;
11568;SDS011;5840;46.894;15.542;2024-03-08T14:10:04;19.27;;;17.27;;
11568;SDS011;5840;46.894;15.542;2024-03-08T14:12:32;18.07;;;16.40;;
11568;SDS011;5840;46.894;15.542;2024-03-08T14:14:58;19.00;;;17.20;;
11568;SDS011;5840;46.894;15.542;2024-03-08T14:17:24;21.47;;;19.30;;
11568;SDS011;5840;46.894;15.542;2024-03-08T14:19:52;21.60;;;19.43;;
11568;SDS011;5840;46.894;15.542;2024-03-08T14:22:18;21.83;;;19.67;;
11568;SDS011;5840;46.894;15.542;2024-03-08T14:24:45;21.57;;;19.47;;
11568;SDS011;5840;46.894;15.542;2024-03-08T14:27:12;22.47;;;20.17;;
11568;SDS011;5840;46.894;15.542;2024-03-08T14:37:08;22.73;;;20.43;;
11568;SDS011;5840;46.894;15.542;2024-03-08T14:39:36;22.23;;;19.93;;
11568;SDS011;5840;46.894;15.542;2024-03-08T14:42:03;21.80;;;19.70;;
11568;SDS011;5840;46.894;15.542;2024-03-08T14:44:31;22.27;;;20.00;;
11568;SDS011;5840;46.894;15.542;2024-03-08T14:46:57;22.07;;;19.77;;
11568;SDS011;5840;46.894;15.542;2024-03-08T14:49:23;23.53;;;21.13;;
11568;SDS011;5840;46.894;15.542;2024-03-08T14:51:51;24.87;;;22.27;;
11568;SDS011;5840;46.894;15.542;2024-03-08T14:54:18;23.70;;;21.23;;
11568;SDS011;5840;46.894;15.542;2024-03-08T15:01:46;25.47;;;21.97;;
11568;SDS011;5840;46.894;15.542;2024-03-08T15:04:13;25.00;;;22.60;;
11568;SDS011;5840;46.894;15.542;2024-03-08T15:06:40;24.77;;;22.27;;
11568;SDS011;5840;46.894;15.542;2024-03-08T15:09:07;24.30;;;21.80;;
11568;SDS011;5840;46.894;15.542;2024-03-08T15:11:37;24.47;;;21.97;;
11568;SDS011;5840;46.894;15.542;2024-03-08T15:14:04;26.43;;;23.73;;
11568;SDS011;5840;46.894;15.542;2024-03-08T15:16:35;25.77;;;23.10;;
11568;SDS011;5840;46.894;15.542;2024-03-08T15:19:02;27.40;;;24.50;;
11568;SDS011;5840;46.894;15.542;2024-03-08T15:28:54;26.70;;;23.90;;
11568;SDS011;5840;46.894;15.542;2024-03-08T15:31:25;26.23;;;23.47;;
11568;SDS011;5840;46.894;15.542;2024-03-08T15:33:52;26.03;;;23.33;;
11568;SDS011;5840;46.894;15.542;2024-03-08T15:36:25;29.13;;;25.97;;
11568;SDS011;5840;46.894;15.542;2024-03-08T15:38:53;29.40;;;26.33;;
11568;SDS011;5840;46.894;15.542;2024-03-08T15:41:20;28.37;;;24.83;;
11568;SDS011;5840;46.894;15.542;2024-03-08T15:43:46;28.13;;;25.13;;
11568;SDS011;5840;46.894;15.542;2024-03-08T15:46:13;28.47;;;25.37;;
11568;SDS011;5840;46.894;15.542;2024-03-08T15:53:44;29.17;;;26.07;;
11568;SDS011;5840;46.894;15.542;2024-03-08T15:56:18;29.90;;;26.70;;
11568;SDS011;5840;46.894;15.542;2024-03-08T15:58:44;31.67;;;27.77;;
11568;SDS011;5840;46.894;15.542;2024-03-08T16:01:10;30.90;;;27.60;;
11568;SDS011;5840;46.894;15.542;2024-03-08T16:03:41;31.53;;;27.83;;
11568;SDS011;5840;46.894;15.542;2024-03-08T16:06:07;30.13;;;26.93;;
11568;SDS011;5840;46.894;15.542;2024-03-08T16:08:33;31.03;;;27.77;;
11568;SDS011;5840;46.894;15.542;2024-03-08T16:11:02;32.03;;;28.70;;
11568;SDS011;5840;46.894;15.542;2024-03-08T16:18:34;33.23;;;29.77;;
11568;SDS011;5840;46.894;15.542;2024-03-08T16:21:02;31.13;;;27.73;;
11568;SDS011;5840;46.894;15.542;2024-03-08T16:23:29;32.73;;;28.60;;
11568;SDS011;5840;46.894;15.542;2024-03-08T16:25:56;33.90;;;30.10;;
11568;SDS011;5840;46.894;15.542;2024-03-08T16:28:22;36.17;;;30.50;;
11568;SDS011;5840;46.894;15.542;2024-03-08T16:30:51;32.97;;;29.47;;
11568;SDS011;5840;46.894;15.542;2024-03-08T16:33:19;34.47;;;30.60;;
11568;SDS011;5840;46.894;15.542;2024-03-08T16:35:48;33.10;;;29.20;;
11568;SDS011;5840;46.894;15.542;2024-03-08T16:45:42;35.03;;;31.30;;
11568;SDS011;5840;46.894;15.542;2024-03-08T16:48:09;37.63;;;31.17;;
11568;SDS011;5840;46.894;15.542;2024-03-08T16:50:35;34.90;;;30.60;;
11568;SDS011;5840;46.894;15.542;2024-03-08T16:53:02;36.67;;;32.53;;
11568;SDS011;5840;46.894;15.542;2024-03-08T16:55:30;35.13;;;31.40;;
11568;SDS011;5840;46.894;15.542;2024-03-08T16:57:56;40.27;;;32.67;;
11568;SDS011;5840;46.894;15.542;2024-03-08T17:00:24;36.07;;;32.20;;
11568;SDS011;5840;46.894;15.542;2024-03-08T17:02:54;36.47;;;31.47;;
11568;SDS011;5840;46.894;15.542;2024-03-08T17:12:52;36.53;;;32.00;;
11568;SDS011;5840;46.894;15.542;2024-03-08T17:15:19;38.83;;;34.60;;
11568;SDS011;5840;46.894;15.542;2024-03-08T17:17:47;37.70;;;33.20;;
11568;SDS011;5840;46.894;15.542;2024-03-08T17:20:14;36.47;;;32.50;;
11568;SDS011;5840;46.894;15.542;2024-03-08T17:22:47;36.93;;;32.93;;
11568;SDS011;5840;46.894;15.542;2024-03-08T17:25:14;36.70;;;32.70;;
11568;SDS011;5840;46.894;15.542;2024-03-08T17:27:41;37.53;;;33.33;;
11568;SDS011;5840;46.894;15.542;2024-03-08T17:30:12;39.03;;;32.80;;
11568;SDS011;5840;46.894;15.542;2024-03-08T17:37:50;37.43;;;33.37;;
11568;SDS011;5840;46.894;15.542;2024-03-08T17:40:18;36.67;;;32.77;;
11568;SDS011;5840;46.894;15.542;2024-03-08T17:42:48;39.17;;;33.97;;
11568;SDS011;5840;46.894;15.542;2024-03-08T17:45:15;43.93;;;39.17;;
11568;SDS011;5840;46.894;15.542;2024-03-08T17:47:43;38.73;;;33.40;;
11568;SDS011;5840;46.894;15.542;2024-03-08T17:50:10;38.40;;;33.93;;
11568;SDS011;5840;46.894;15.542;2024-03-08T17:52:39;40.20;;;34.17;;
11568;SDS011;5840;46.894;15.542;2024-03-08T17:55:08;38.27;;;33.30;;
11568;SDS011;5840;46.894;15.542;2024-03-08T18:02:41;39.73;;;34.17;;
11568;SDS011;5840;46.894;15.542;2024-03-08T18:05:08;40.23;;;34.67;;
11568;SDS011;5840;46.894;15.542;2024-03-08T18:07:38;37.97;;;33.77;;
11568;SDS011;5840;46.894;15.542;2024-03-08T18:10:05;39.07;;;33.30;;
11568;SDS011;5840;46.894;15.542;2024-03-08T18:12:32;42.50;;;35.10;;
11568;SDS011;5840;46.894;15.542;2024-03-08T18:15:00;36.73;;;32.73;;
11568;SDS011;5840;46.894;15.542;2024-03-08T18:17:26;39.77;;;34.20;;
11568;SDS011;5840;46.894;15.542;2024-03-08T18:19:53;39.33;;;34.00;;
11568;SDS011;5840;46.894;15.542;2024-03-08T18:29:49;39.33;;;34.93;;
11568;SDS011;5840;46.894;15.542;2024-03-08T18:32:16;41.50;;;35.43;;
11568;SDS011;5840;46.894;15.542;2024-03-08T18:34:45;41.93;;;35.17;;